Time;durP1;ratioP1;P1;durP2;ratioP2;P2;SDS_P1;SDS_P2;PMS_P1;PMS_P2;Temp;Humidity;BMP_temperature;BMP_pressure;BME280_temperature;BME280_humidity;BME280_pressure;Samples;Min_cycle;Max_cycle;Signal;HPM_P1;HPM_P2
2022/12/24 00:02:28;;;;;;;61.85;21.98;;;5.80;99.90;;;;;;5089820;28;20048;-83
2022/12/24 00:05:14;;;;;;;49.60;19.33;;;5.80;99.90;;;;;;5073822;28;20054;-83
2022/12/24 00:08:00;;;;;;;64.32;22.13;;;5.80;99.90;;;;;;5071123;28;20109;-82
2022/12/24 00:10:52;;;;;;;49.53;20.63;;;5.80;99.90;;;;;;5090562;28;20059;-82
2022/12/24 00:13:38;;;;;;;49.17;18.63;;;5.80;99.90;;;;;;5059523;28;20044;-81
2022/12/24 00:16:26;;;;;;;73.30;23.25;;;5.80;99.90;;;;;;5090065;28;20050;-84
2022/12/24 00:19:12;;;;;;;69.97;22.90;;;5.80;99.90;;;;;;5065007;28;20123;-83
2022/12/24 00:21:58;;;;;;;78.18;23.30;;;5.80;99.90;;;;;;5079498;28;20040;-85
2022/12/24 00:24:44;;;;;;;68.88;22.15;;;5.80;99.90;;;;;;5094043;28;20494;-81
2022/12/24 00:27:31;;;;;;;108.18;25.98;;;5.80;99.90;;;;;;5082229;28;20509;-82
2022/12/24 00:30:17;;;;;;;67.22;21.95;;;5.80;99.90;;;;;;5100927;28;20085;-82
2022/12/24 00:33:03;;;;;;;84.10;23.92;;;5.80;99.90;;;;;;5090349;28;20052;-81
2022/12/24 00:35:51;;;;;;;119.40;27.70;;;5.70;99.90;;;;;;5058768;28;20056;-80
2022/12/24 00:38:38;;;;;;;95.43;25.40;;;5.70;99.90;;;;;;5071686;28;20400;-82
2022/12/24 00:41:24;;;;;;;94.13;27.42;;;5.70;99.90;;;;;;5076957;28;20857;-81
2022/12/24 00:44:11;;;;;;;64.45;21.90;;;5.70;99.90;;;;;;5076096;28;20070;-79
2022/12/24 00:46:57;;;;;;;98.32;26.58;;;5.70;99.90;;;;;;5075630;28;20385;-80
2022/12/24 00:49:43;;;;;;;76.10;28.23;;;5.70;99.90;;;;;;5093920;28;20540;-81
2022/12/24 00:52:29;;;;;;;95.05;28.40;;;5.70;99.90;;;;;;5081309;28;20040;-81
2022/12/24 00:55:16;;;;;;;97.32;28.67;;;5.70;99.90;;;;;;5100451;28;20047;-82
2022/12/24 00:58:02;;;;;;;114.18;27.92;;;5.70;99.90;;;;;;5076316;28;20092;-83
2022/12/24 01:00:48;;;;;;;81.00;24.48;;;5.70;99.90;;;;;;5077648;28;20515;-82
2022/12/24 01:03:35;;;;;;;89.93;25.67;;;5.70;99.90;;;;;;5092360;28;20114;-82
2022/12/24 01:06:21;;;;;;;81.63;26.38;;;5.70;99.90;;;;;;5075517;28;20044;-80
2022/12/24 01:09:07;;;;;;;75.57;24.95;;;5.70;99.90;;;;;;5075091;28;20113;-82
2022/12/24 01:11:54;;;;;;;109.45;28.30;;;5.70;99.90;;;;;;5092521;28;20134;-82
2022/12/24 01:14:40;;;;;;;97.78;27.17;;;5.70;99.90;;;;;;5094293;28;20074;-84
2022/12/24 01:17:26;;;;;;;89.68;25.50;;;5.70;99.90;;;;;;5094112;28;20048;-84
2022/12/24 01:20:15;;;;;;;71.70;23.00;;;5.70;99.90;;;;;;5068044;28;20052;-81
2022/12/24 01:23:02;;;;;;;66.88;24.58;;;5.70;99.90;;;;;;5093388;28;20154;-80
2022/12/24 01:25:49;;;;;;;77.10;25.05;;;5.70;99.90;;;;;;5074992;28;20048;-82
2022/12/24 01:28:35;;;;;;;79.80;25.52;;;5.70;99.90;;;;;;5100174;28;20052;-84
2022/12/24 01:31:21;;;;;;;85.68;25.17;;;5.70;99.90;;;;;;5082831;28;20052;-80
2022/12/24 01:34:07;;;;;;;58.33;23.20;;;5.80;99.90;;;;;;5093315;28;20056;-80
2022/12/24 01:36:54;;;;;;;79.75;24.15;;;5.80;99.90;;;;;;5061073;28;20113;-81
2022/12/24 01:39:40;;;;;;;69.85;22.27;;;5.80;99.90;;;;;;5077569;28;20128;-82
2022/12/24 01:45:50;;;;;;;66.78;22.52;;;5.80;99.90;;;;;;5074486;28;20060;-84
2022/12/24 01:48:41;;;;;;;62.65;22.85;;;5.80;99.90;;;;;;5099027;28;20056;-81
2022/12/24 01:51:37;;;;;;;64.68;23.67;;;5.90;99.90;;;;;;5092009;28;20059;-83
2022/12/24 01:54:38;;;;;;;66.07;23.10;;;5.90;99.90;;;;;;5096925;28;20075;-80
2022/12/24 01:57:26;;;;;;;56.20;22.23;;;5.90;99.90;;;;;;5074712;28;20484;-82
2022/12/24 02:00:15;;;;;;;60.92;22.20;;;6.00;99.90;;;;;;5092517;28;20056;-83
2022/12/24 02:03:01;;;;;;;55.42;21.83;;;6.00;99.90;;;;;;5074776;28;20205;-82
2022/12/24 02:05:54;;;;;;;64.93;24.20;;;6.00;99.90;;;;;;5097273;28;20044;-82
2022/12/24 02:08:41;;;;;;;67.70;23.83;;;6.00;99.90;;;;;;5095651;28;20480;-82
2022/12/24 02:11:29;;;;;;;68.80;23.95;;;6.00;99.90;;;;;;5074898;28;20050;-83
2022/12/24 02:14:16;;;;;;;64.35;24.60;;;6.00;99.90;;;;;;5092902;28;20134;-82
2022/12/24 02:17:42;;;;;;;63.35;23.80;;;6.00;99.90;;;;;;5092936;28;20063;-81
2022/12/24 02:20:35;;;;;;;57.63;22.45;;;6.00;99.90;;;;;;5078162;28;20051;-79
2022/12/24 02:23:31;;;;;;;91.85;28.80;;;6.00;99.90;;;;;;5091511;28;20574;-82
2022/12/24 02:26:49;;;;;;;84.90;27.55;;;6.00;99.90;;;;;;5081693;28;20048;-83
2022/12/24 02:30:03;;;;;;;75.25;24.13;;;6.00;99.90;;;;;;5072757;28;20048;-84
2022/12/24 02:33:27;;;;;;;88.85;29.50;;;6.00;99.90;;;;;;5059851;28;20080;-81
2022/12/24 02:36:28;;;;;;;95.07;28.98;;;6.00;99.90;;;;;;5073595;28;20488;-81
2022/12/24 02:39:25;;;;;;;80.53;26.85;;;6.00;99.90;;;;;;5073411;28;20043;-80
2022/12/24 02:42:17;;;;;;;76.07;26.25;;;6.00;99.90;;;;;;5090984;28;20040;-83
2022/12/24 02:45:12;;;;;;;74.22;25.83;;;6.00;99.90;;;;;;5093516;28;20044;-81
2022/12/24 02:47:59;;;;;;;63.40;24.30;;;6.00;99.90;;;;;;5073467;28;20420;-83
2022/12/24 02:51:02;;;;;;;128.68;33.42;;;6.10;99.90;;;;;;5094929;28;20108;-84
2022/12/24 02:53:48;;;;;;;95.18;28.95;;;6.00;99.90;;;;;;5073864;28;20052;-80
2022/12/24 02:56:40;;;;;;;67.25;24.65;;;6.10;99.90;;;;;;5058730;28;20047;-79
2022/12/24 03:00:01;;;;;;;107.38;28.27;;;6.10;99.90;;;;;;5075165;28;20725;-83
2022/12/24 03:03:32;;;;;;;82.60;26.10;;;6.00;99.90;;;;;;5090547;28;20545;-80
2022/12/24 03:06:43;;;;;;;69.40;23.23;;;6.00;99.90;;;;;;5072727;28;20051;-82
2022/12/24 03:09:47;;;;;;;76.43;26.30;;;6.10;99.90;;;;;;5091220;28;20051;-80
2022/12/24 03:13:12;;;;;;;85.18;25.95;;;6.10;99.90;;;;;;5091328;28;20043;-80
2022/12/24 03:15:58;;;;;;;75.25;27.25;;;6.00;99.90;;;;;;4995164;28;20058;-81
2022/12/24 03:18:48;;;;;;;138.20;30.55;;;6.10;99.90;;;;;;5078500;28;20040;-81
2022/12/24 03:21:38;;;;;;;93.68;27.23;;;6.10;99.90;;;;;;5071346;28;20072;-80
2022/12/24 03:24:24;;;;;;;55.38;21.98;;;6.10;99.90;;;;;;5052810;28;20041;-82
2022/12/24 03:27:13;;;;;;;76.40;25.25;;;6.10;99.90;;;;;;5070955;28;20048;-82
2022/12/24 03:29:59;;;;;;;80.20;26.00;;;6.10;99.90;;;;;;5052101;28;20052;-82
2022/12/24 03:32:46;;;;;;;59.40;21.45;;;6.10;99.90;;;;;;5052798;28;20056;-82
2022/12/24 03:35:32;;;;;;;98.57;28.75;;;6.10;99.90;;;;;;5055950;28;20471;-80
2022/12/24 03:38:18;;;;;;;74.28;26.75;;;6.10;99.90;;;;;;5063567;28;20045;-82
2022/12/24 03:41:05;;;;;;;71.57;25.95;;;6.10;99.90;;;;;;5057281;28;20203;-84
2022/12/24 03:43:52;;;;;;;66.43;23.73;;;6.10;99.90;;;;;;5054582;28;20088;-82
2022/12/24 03:46:38;;;;;;;99.88;29.65;;;6.10;99.90;;;;;;5070601;28;20468;-80
2022/12/24 03:49:24;;;;;;;83.45;26.48;;;6.10;99.90;;;;;;5052963;28;20049;-82
2022/12/24 03:52:10;;;;;;;66.75;25.85;;;6.10;99.90;;;;;;5058304;28;20052;-82
2022/12/24 03:54:56;;;;;;;64.65;24.90;;;6.10;99.90;;;;;;5052421;28;20056;-82
2022/12/24 03:57:42;;;;;;;72.10;26.75;;;6.20;99.90;;;;;;5052517;28;20103;-80
2022/12/24 04:00:29;;;;;;;96.40;30.10;;;6.20;99.90;;;;;;5051693;28;20048;-81
2022/12/24 04:03:15;;;;;;;81.90;28.65;;;6.20;99.90;;;;;;5052097;28;20392;-80
2022/12/24 04:06:03;;;;;;;78.63;27.63;;;6.20;99.90;;;;;;5052552;28;20052;-82
2022/12/24 04:08:50;;;;;;;74.00;27.33;;;6.20;99.90;;;;;;5063104;28;20443;-85
2022/12/24 04:11:36;;;;;;;81.82;30.00;;;6.20;99.90;;;;;;5074932;28;20055;-82
2022/12/24 04:14:22;;;;;;;80.53;28.65;;;6.20;99.90;;;;;;5069566;28;20151;-83
2022/12/24 04:17:08;;;;;;;89.32;30.83;;;6.20;99.90;;;;;;5083418;28;20098;-81
2022/12/24 04:19:55;;;;;;;82.93;29.60;;;6.20;99.90;;;;;;5076281;28;20063;-81
2022/12/24 04:22:41;;;;;;;69.72;27.33;;;6.20;99.90;;;;;;5076305;28;20058;-82
2022/12/24 04:25:27;;;;;;;81.18;28.75;;;6.30;99.90;;;;;;5100509;28;20732;-81
2022/12/24 04:28:14;;;;;;;75.15;27.73;;;6.30;99.90;;;;;;5075646;28;20507;-81
2022/12/24 04:31:01;;;;;;;75.22;28.25;;;6.30;99.90;;;;;;5093241;28;20576;-82
2022/12/24 04:33:50;;;;;;;73.38;25.58;;;6.40;99.90;;;;;;5094209;28;20536;-83
2022/12/24 04:36:37;;;;;;;78.38;26.38;;;6.40;99.90;;;;;;5100894;28;20055;-82
2022/12/24 04:39:23;;;;;;;74.47;27.23;;;6.40;99.90;;;;;;5075757;28;20052;-81
2022/12/24 04:42:10;;;;;;;69.18;25.88;;;6.50;99.90;;;;;;5065263;28;20055;-83
2022/12/24 04:44:56;;;;;;;70.28;26.20;;;6.50;99.90;;;;;;5077062;28;20048;-84
2022/12/24 04:47:43;;;;;;;52.22;20.85;;;6.50;99.90;;;;;;5075973;28;20056;-82
2022/12/24 04:50:29;;;;;;;56.22;19.52;;;6.60;99.90;;;;;;5093820;28;20427;-82
2022/12/24 04:53:15;;;;;;;54.33;18.15;;;6.60;99.90;;;;;;5075314;28;20056;-82
2022/12/24 04:56:02;;;;;;;43.95;17.10;;;6.70;99.90;;;;;;5093769;28;20044;-82
2022/12/24 04:58:49;;;;;;;48.22;16.10;;;6.70;99.90;;;;;;5079614;28;20048;-79
2022/12/24 05:01:35;;;;;;;47.38;13.25;;;6.80;99.90;;;;;;5079365;28;20075;-81
2022/12/24 05:04:21;;;;;;;56.67;13.10;;;6.90;99.90;;;;;;5093885;28;20046;-78
2022/12/24 05:07:07;;;;;;;55.40;12.45;;;7.00;99.90;;;;;;5064912;28;20056;-81
2022/12/24 05:09:54;;;;;;;46.17;10.40;;;7.10;99.90;;;;;;5093960;28;20044;-80
2022/12/24 05:12:40;;;;;;;46.78;10.27;;;7.10;99.90;;;;;;5093632;28;20408;-80
2022/12/24 05:15:26;;;;;;;43.60;8.27;;;7.20;99.90;;;;;;5093426;28;20044;-81
2022/12/24 05:18:12;;;;;;;40.63;8.18;;;7.20;99.90;;;;;;5076504;28;20070;-79
2022/12/24 05:20:59;;;;;;;50.83;9.52;;;7.30;99.90;;;;;;5093236;28;20044;-81
2022/12/24 05:26:53;;;;;;;36.50;6.75;;;7.30;99.90;;;;;;5076059;28;20557;-79
2022/12/24 05:29:39;;;;;;;34.33;6.93;;;7.30;99.90;;;;;;5084015;28;20048;-80
2022/12/24 05:32:25;;;;;;;41.90;10.00;;;7.40;99.90;;;;;;5075187;28;20063;-79
2022/12/24 05:35:12;;;;;;;35.75;8.18;;;7.40;99.90;;;;;;5095617;28;20487;-80
2022/12/24 05:37:58;;;;;;;41.70;9.10;;;7.50;99.90;;;;;;5093138;28;20048;-80
2022/12/24 05:40:45;;;;;;;42.20;9.07;;;7.50;99.90;;;;;;5073921;28;20075;-82
2022/12/24 05:43:32;;;;;;;50.30;10.18;;;7.50;99.90;;;;;;5091767;28;20055;-79
2022/12/24 05:46:20;;;;;;;47.83;9.20;;;7.50;99.90;;;;;;5077513;28;20052;-80
2022/12/24 05:49:06;;;;;;;48.67;7.55;;;7.50;99.90;;;;;;5060728;28;20157;-80
2022/12/24 05:51:52;;;;;;;51.58;9.00;;;7.50;99.90;;;;;;5093055;28;20044;-81
2022/12/24 05:54:39;;;;;;;53.40;8.52;;;7.60;99.90;;;;;;5078465;28;20073;-83
2022/12/24 05:57:25;;;;;;;48.67;7.60;;;7.60;99.90;;;;;;5079824;28;20040;-79
2022/12/24 06:00:11;;;;;;;51.55;7.82;;;7.60;99.90;;;;;;5075342;28;20086;-81
2022/12/24 06:02:57;;;;;;;55.30;7.63;;;7.60;99.90;;;;;;5093402;28;20048;-79
2022/12/24 06:05:44;;;;;;;54.78;10.40;;;7.60;99.90;;;;;;5092490;28;20419;-80
2022/12/24 06:08:31;;;;;;;59.13;7.97;;;7.60;99.90;;;;;;5092657;28;20055;-82
2022/12/24 06:11:20;;;;;;;52.55;7.82;;;7.60;99.90;;;;;;5074722;28;20121;-81
2022/12/24 06:14:06;;;;;;;65.22;9.55;;;7.60;99.90;;;;;;5094253;28;20707;-81
2022/12/24 06:16:53;;;;;;;67.10;10.60;;;7.50;99.90;;;;;;5091702;28;20052;-81
2022/12/24 06:19:39;;;;;;;60.00;9.15;;;7.50;99.90;;;;;;5073675;28;20052;-80
2022/12/24 06:22:25;;;;;;;60.00;9.88;;;7.50;99.90;;;;;;5078145;28;20052;-81
2022/12/24 06:25:11;;;;;;;47.63;9.45;;;7.50;99.90;;;;;;5094170;28;20043;-84
2022/12/24 06:27:58;;;;;;;58.22;10.30;;;7.40;99.90;;;;;;5078868;28;20044;-82
2022/12/24 06:30:49;;;;;;;47.03;9.18;;;7.40;99.90;;;;;;5060615;28;20457;-80
2022/12/24 06:33:35;;;;;;;50.72;11.13;;;7.40;99.90;;;;;;5074342;28;20076;-81
2022/12/24 06:36:24;;;;;;;48.40;8.70;;;7.50;99.90;;;;;;5092524;28;20075;-80
2022/12/24 06:39:10;;;;;;;50.92;8.38;;;7.50;99.90;;;;;;5071806;28;20514;-80
2022/12/24 06:41:56;;;;;;;66.75;9.13;;;7.50;99.90;;;;;;5091942;28;20063;-83
2022/12/24 06:44:43;;;;;;;50.55;10.82;;;7.50;99.90;;;;;;5098179;28;20066;-82
2022/12/24 06:47:29;;;;;;;59.83;11.52;;;7.50;99.90;;;;;;5073470;28;20112;-83
2022/12/24 06:50:15;;;;;;;55.22;8.77;;;7.50;99.90;;;;;;5097438;28;20040;-80
2022/12/24 06:53:02;;;;;;;60.45;9.35;;;7.50;99.90;;;;;;5060302;28;20108;-81
2022/12/24 06:55:48;;;;;;;62.05;8.90;;;7.50;99.90;;;;;;5059907;28;20499;-81
2022/12/24 06:58:35;;;;;;;44.33;8.45;;;7.50;99.90;;;;;;5090751;28;20052;-82
2022/12/24 07:01:23;;;;;;;59.80;11.65;;;7.50;99.90;;;;;;5090471;28;20070;-79
2022/12/24 07:04:09;;;;;;;52.97;8.80;;;7.40;99.90;;;;;;5093942;28;20479;-80
2022/12/24 07:06:55;;;;;;;60.45;10.35;;;7.30;99.90;;;;;;5075744;28;20044;-80
2022/12/24 07:09:41;;;;;;;57.83;8.38;;;7.30;99.90;;;;;;5073040;28;20139;-79
2022/12/24 07:12:27;;;;;;;69.32;11.70;;;7.20;99.90;;;;;;5059784;28;20608;-80
2022/12/24 07:15:15;;;;;;;60.47;8.48;;;7.20;99.90;;;;;;5090514;28;20052;-82
2022/12/24 07:18:01;;;;;;;46.58;8.57;;;7.10;99.90;;;;;;5074527;28;20067;-79
2022/12/24 07:20:47;;;;;;;55.65;9.50;;;7.00;99.90;;;;;;5080364;28;20059;-79
2022/12/24 07:23:34;;;;;;;54.08;9.40;;;7.00;99.90;;;;;;5073187;28;20050;-80
2022/12/24 07:26:20;;;;;;;60.70;7.63;;;7.00;99.90;;;;;;5071557;28;20044;-80
2022/12/24 07:29:06;;;;;;;57.47;8.63;;;7.00;99.90;;;;;;5090829;28;20058;-81
2022/12/24 07:31:52;;;;;;;56.72;8.90;;;6.90;99.90;;;;;;5072330;28;20066;-82
2022/12/24 07:34:38;;;;;;;53.90;9.07;;;6.90;99.90;;;;;;5071482;28;20052;-79
2022/12/24 07:37:25;;;;;;;58.25;9.32;;;6.90;99.90;;;;;;5091479;28;20052;-82
2022/12/24 07:40:11;;;;;;;59.15;8.32;;;6.90;99.90;;;;;;5075903;28;20408;-82
2022/12/24 07:42:57;;;;;;;53.72;9.10;;;6.90;99.90;;;;;;5072691;28;20059;-82
2022/12/24 07:45:44;;;;;;;70.30;9.65;;;6.90;99.90;;;;;;5076444;28;20056;-81
2022/12/24 07:48:30;;;;;;;47.28;9.13;;;6.90;99.90;;;;;;5093958;28;20143;-80
2022/12/24 07:51:17;;;;;;;44.00;7.90;;;6.90;99.90;;;;;;5073020;28;20774;-79
2022/12/24 07:54:03;;;;;;;62.13;9.38;;;7.00;99.90;;;;;;5058372;28;20492;-82
2022/12/24 07:56:50;;;;;;;57.35;9.95;;;7.00;99.90;;;;;;5093102;28;20143;-79
2022/12/24 07:59:37;;;;;;;53.85;9.25;;;6.90;99.90;;;;;;5059487;28;20101;-79
2022/12/24 08:02:24;;;;;;;54.83;8.25;;;6.90;99.90;;;;;;5072874;28;20051;-80
2022/12/24 08:05:10;;;;;;;50.92;7.63;;;6.80;99.90;;;;;;5089952;28;20508;-78
2022/12/24 08:07:56;;;;;;;51.13;7.93;;;6.80;99.90;;;;;;5072177;28;20048;-79
2022/12/24 08:10:44;;;;;;;54.88;7.65;;;6.80;99.90;;;;;;5091016;28;20052;-79
2022/12/24 08:13:31;;;;;;;60.20;10.68;;;6.70;99.90;;;;;;5063369;28;20051;-80
2022/12/24 08:16:17;;;;;;;68.47;10.48;;;6.70;99.90;;;;;;5073936;28;20051;-82
2022/12/24 08:19:04;;;;;;;44.22;8.57;;;6.60;99.90;;;;;;5071981;28;20080;-79
2022/12/24 08:21:50;;;;;;;53.80;8.88;;;6.50;99.90;;;;;;5050477;28;20063;-81
2022/12/24 08:24:36;;;;;;;50.88;9.88;;;6.50;99.90;;;;;;5050543;28;20049;-80
2022/12/24 08:27:22;;;;;;;46.20;8.10;;;6.50;99.90;;;;;;5050007;28;20052;-80
2022/12/24 08:30:09;;;;;;;52.67;8.02;;;6.50;99.90;;;;;;5051343;28;20113;-80
2022/12/24 08:32:55;;;;;;;48.53;8.50;;;6.60;99.90;;;;;;5068171;28;20048;-81
2022/12/24 08:35:47;;;;;;;55.47;8.75;;;6.60;99.90;;;;;;5059674;28;20049;-81
2022/12/24 08:38:34;;;;;;;68.82;9.60;;;6.70;99.90;;;;;;5051412;28;20618;-81
2022/12/24 08:41:20;;;;;;;48.47;8.63;;;6.70;99.90;;;;;;5069424;28;20060;-81
2022/12/24 08:44:06;;;;;;;58.90;8.40;;;6.70;99.90;;;;;;5037895;28;20066;-80
2022/12/24 08:46:52;;;;;;;46.83;8.40;;;6.70;99.90;;;;;;5038536;28;20578;-82
2022/12/24 08:49:39;;;;;;;49.33;9.43;;;6.70;99.90;;;;;;5054173;28;20131;-81
2022/12/24 08:52:25;;;;;;;56.42;10.25;;;6.80;99.90;;;;;;5036791;28;20053;-81
2022/12/24 08:55:11;;;;;;;58.47;10.60;;;6.80;99.90;;;;;;5037238;28;20114;-81
2022/12/24 08:57:59;;;;;;;57.42;8.73;;;6.80;99.90;;;;;;5074480;28;20052;-82
2022/12/24 09:00:45;;;;;;;60.38;9.57;;;6.80;99.90;;;;;;5070472;28;20051;-82
2022/12/24 09:03:31;;;;;;;66.53;10.90;;;6.90;99.90;;;;;;5053342;28;20052;-81
2022/12/24 09:06:17;;;;;;;55.35;9.35;;;6.90;99.90;;;;;;5053676;28;20040;-80
2022/12/24 09:09:05;;;;;;;51.58;10.23;;;6.90;99.90;;;;;;5072285;28;20044;-82
2022/12/24 09:11:52;;;;;;;51.70;7.70;;;7.00;99.90;;;;;;5054610;28;20774;-81
2022/12/24 09:14:38;;;;;;;53.35;9.57;;;7.00;99.90;;;;;;5053906;28;20048;-81
2022/12/24 09:17:24;;;;;;;61.13;9.15;;;7.10;99.90;;;;;;5081451;28;20083;-83
2022/12/24 09:20:11;;;;;;;37.35;8.73;;;7.20;99.90;;;;;;5081016;28;20056;-83
2022/12/24 09:22:57;;;;;;;46.90;9.05;;;7.30;99.90;;;;;;5093370;28;20056;-84
2022/12/24 09:25:43;;;;;;;44.45;9.75;;;7.40;99.90;;;;;;5075684;28;20071;-80
2022/12/24 09:28:30;;;;;;;42.78;8.43;;;7.50;99.90;;;;;;5093616;28;20389;-83
2022/12/24 09:31:17;;;;;;;45.40;8.82;;;7.60;99.90;;;;;;5094008;28;20040;-80
2022/12/24 09:34:03;;;;;;;44.17;8.70;;;7.70;99.90;;;;;;5081253;28;20052;-81
2022/12/24 09:36:50;;;;;;;35.42;7.30;;;7.80;99.90;;;;;;5078400;28;20044;-84
2022/12/24 09:39:36;;;;;;;58.33;11.02;;;7.90;99.90;;;;;;5085917;28;20048;-82
2022/12/24 09:42:53;;;;;;;46.20;8.90;;;8.00;99.90;;;;;;5094137;28;20090;-81
2022/12/24 09:45:43;;;;;;;36.88;6.40;;;8.00;99.90;;;;;;5094153;28;20133;-81
2022/12/24 09:48:32;;;;;;;43.22;8.50;;;8.00;99.90;;;;;;5076799;28;20040;-79
2022/12/24 09:51:43;;;;;;;47.05;8.38;;;8.00;99.90;;;;;;5075577;28;20112;-79
2022/12/24 09:54:32;;;;;;;46.00;9.20;;;8.10;99.90;;;;;;5077337;28;20075;-82
2022/12/24 09:57:34;;;;;;;45.83;8.70;;;8.10;99.90;;;;;;5080084;28;20048;-81
2022/12/24 10:00:26;;;;;;;51.97;8.65;;;8.20;99.90;;;;;;5092387;28;20043;-81
2022/12/24 10:03:16;;;;;;;54.28;10.27;;;8.30;99.90;;;;;;5074256;28;20048;-81
2022/12/24 10:06:02;;;;;;;42.00;10.20;;;8.30;99.90;;;;;;5075580;28;20044;-83
2022/12/24 10:08:57;;;;;;;44.83;10.10;;;8.40;99.90;;;;;;5077902;28;20047;-83
2022/12/24 10:11:56;;;;;;;38.75;8.23;;;8.50;99.90;;;;;;5069779;28;20078;-82
2022/12/24 10:15:16;;;;;;;45.50;8.60;;;8.50;99.90;;;;;;5100502;28;20126;-80
2022/12/24 10:18:26;;;;;;;59.30;9.02;;;8.50;99.90;;;;;;5104280;28;20060;-82
2022/12/24 10:21:30;;;;;;;32.67;6.68;;;8.50;99.90;;;;;;5106536;28;20056;-83
2022/12/24 10:24:30;;;;;;;34.20;6.60;;;8.60;99.90;;;;;;5105988;28;20052;-83
2022/12/24 10:27:20;;;;;;;37.83;7.43;;;8.60;99.90;;;;;;5105141;28;20449;-83
2022/12/24 10:30:19;;;;;;;42.80;8.15;;;8.90;99.90;;;;;;5086351;28;20044;-83
2022/12/24 10:33:20;;;;;;;49.05;8.77;;;8.90;99.90;;;;;;5078167;28;20048;-82
2022/12/24 10:36:16;;;;;;;38.78;8.52;;;8.90;99.90;;;;;;5075759;28;20560;-81
2022/12/24 10:39:02;;;;;;;38.78;8.25;;;8.90;99.90;;;;;;5076749;28;20531;-83
2022/12/24 10:41:52;;;;;;;37.42;7.68;;;8.80;99.90;;;;;;5091781;28;20078;-82
2022/12/24 10:44:38;;;;;;;40.05;7.93;;;8.80;99.90;;;;;;5092484;28;20579;-80
2022/12/24 10:47:25;;;;;;;40.20;9.15;;;8.80;99.90;;;;;;5077433;28;20135;-84
2022/12/24 10:50:30;;;;;;;42.00;8.40;;;8.80;99.90;;;;;;5074270;28;20051;-84
2022/12/24 10:53:47;;;;;;;38.05;7.25;;;8.80;99.90;;;;;;5073552;28;20051;-82
2022/12/24 10:56:45;;;;;;;41.13;7.18;;;8.80;99.90;;;;;;5090434;28;20044;-84
2022/12/24 10:59:51;;;;;;;33.88;7.20;;;8.80;99.90;;;;;;5077114;28;20101;-81
2022/12/24 11:02:38;;;;;;;34.88;7.40;;;8.80;99.90;;;;;;5091596;28;20048;-82
2022/12/24 11:05:31;;;;;;;41.05;7.80;;;8.80;99.90;;;;;;5060035;28;20052;-81
2022/12/24 11:08:19;;;;;;;40.85;7.63;;;8.80;99.90;;;;;;5059295;28;20052;-81
2022/12/24 11:11:16;;;;;;;41.50;7.15;;;8.80;99.90;;;;;;5073498;28;20048;-80
2022/12/24 11:14:02;;;;;;;55.05;8.57;;;8.80;99.90;;;;;;5093927;28;20063;-84
2022/12/24 11:16:52;;;;;;;42.38;8.52;;;8.80;99.90;;;;;;5093587;28;20115;-83
2022/12/24 11:19:39;;;;;;;52.13;7.93;;;8.90;99.90;;;;;;5073710;28;20107;-82
2022/12/24 11:22:27;;;;;;;52.13;8.40;;;8.90;99.90;;;;;;5089824;28;20059;-81
2022/12/24 11:25:22;;;;;;;51.20;8.48;;;8.90;99.90;;;;;;5090942;28;20052;-81
2022/12/24 11:28:20;;;;;;;39.90;6.47;;;8.90;99.90;;;;;;5096605;28;20052;-79
2022/12/24 11:31:20;;;;;;;33.08;6.93;;;9.10;99.90;;;;;;5096617;28;20051;-82
2022/12/24 11:34:24;;;;;;;37.90;7.07;;;9.20;99.90;;;;;;5092093;28;20044;-81
2022/12/24 11:37:20;;;;;;;30.45;5.85;;;9.90;99.90;;;;;;5072996;28;20135;-81
2022/12/24 11:40:21;;;;;;;27.42;6.25;;;10.40;99.90;;;;;;5073592;28;20094;-84
2022/12/24 11:43:17;;;;;;;29.92;6.43;;;10.70;99.90;;;;;;5072699;28;20109;-83
2022/12/24 11:46:10;;;;;;;;;;;11.30;99.90;;;;;;5092255;28;20044;-84
2022/12/24 11:49:12;;;;;;;33.45;5.85;;;11.80;99.90;;;;;;5095517;28;20307;-83
2022/12/24 11:52:10;;;;;;;31.88;5.32;;;12.20;99.90;;;;;;5091153;28;20051;-82
2022/12/24 11:55:25;;;;;;;24.65;4.40;;;12.00;99.90;;;;;;5073000;28;20074;-83
2022/12/24 11:58:30;;;;;;;25.67;5.15;;;11.80;99.90;;;;;;5084188;28;20048;-81
2022/12/24 12:01:34;;;;;;;27.40;5.63;;;11.50;99.90;;;;;;5090381;28;20054;-82
2022/12/24 12:04:27;;;;;;;34.13;5.40;;;11.00;99.90;;;;;;5090288;28;20550;-80
2022/12/24 12:07:35;;;;;;;34.55;5.95;;;10.60;99.90;;;;;;5071271;28;20044;-82
2022/12/24 12:10:29;;;;;;;30.75;5.07;;;10.20;99.90;;;;;;5072740;28;20055;-82
2022/12/24 12:13:36;;;;;;;25.58;5.75;;;9.90;99.90;;;;;;5083551;28;20044;-84
2022/12/24 12:17:02;;;;;;;28.20;5.05;;;9.70;99.90;;;;;;5074599;28;20070;-78
2022/12/24 12:20:00;;;;;;;;;;;9.60;99.90;;;;;;5104104;28;20051;-79
2022/12/24 12:23:14;;;;;;;27.10;4.53;;;9.40;99.90;;;;;;5092980;28;20407;-78
2022/12/24 12:26:12;;;;;;;26.25;5.03;;;9.30;99.90;;;;;;5092242;28;20048;-84
2022/12/24 12:29:00;;;;;;;21.75;4.90;;;9.20;99.90;;;;;;5089801;28;20047;-81
2022/12/24 12:31:51;;;;;;;20.77;4.00;;;9.20;99.90;;;;;;5059126;28;20052;-81
2022/12/24 12:34:48;;;;;;;28.13;5.15;;;9.10;99.90;;;;;;5089885;28;20425;-78
2022/12/24 12:37:43;;;;;;;20.83;4.00;;;9.00;99.90;;;;;;5094435;28;20116;-82
2022/12/24 12:40:36;;;;;;;19.27;4.97;;;9.00;99.90;;;;;;5076395;28;20109;-85
2022/12/24 12:43:46;;;;;;;30.50;5.47;;;8.90;99.90;;;;;;5101584;28;20056;-84
2022/12/24 12:46:44;;;;;;;41.53;7.03;;;8.90;99.90;;;;;;5075463;28;20081;-84
2022/12/24 12:49:52;;;;;;;20.45;4.38;;;8.90;99.90;;;;;;5075687;28;20500;-78
2022/12/24 12:53:17;;;;;;;18.25;4.03;;;8.90;99.90;;;;;;5093875;28;20040;-77
2022/12/24 12:56:38;;;;;;;23.38;4.32;;;8.90;99.90;;;;;;5055422;28;20044;-77
2022/12/24 12:59:39;;;;;;;20.42;3.67;;;8.90;99.90;;;;;;5080149;28;20051;-82
2022/12/24 13:02:34;;;;;;;18.23;3.80;;;8.80;99.90;;;;;;5066094;28;20055;-79
2022/12/24 13:05:54;;;;;;;18.95;3.38;;;8.80;99.90;;;;;;5075483;28;20070;-77
2022/12/24 13:09:04;;;;;;;22.23;4.75;;;8.80;99.90;;;;;;5075437;28;20510;-77
2022/12/24 13:12:18;;;;;;;29.27;7.03;;;8.70;99.90;;;;;;5092496;28;20470;-82
2022/12/24 13:15:13;;;;;;;23.23;4.00;;;8.60;99.90;;;;;;5096302;28;20078;-82
2022/12/24 13:17:59;;;;;;;25.95;4.70;;;8.60;99.90;;;;;;5096453;28;20044;-81
2022/12/24 13:20:50;;;;;;;17.98;4.35;;;8.60;99.90;;;;;;5091998;28;20048;-79
2022/12/24 13:23:36;;;;;;;21.27;4.38;;;8.60;99.90;;;;;;5092593;28;20151;-82
2022/12/24 13:26:23;;;;;;;24.58;4.70;;;8.50;99.90;;;;;;5091867;28;20056;-83
2022/12/24 13:29:30;;;;;;;23.30;5.18;;;8.50;99.90;;;;;;5092445;28;20072;-83
2022/12/24 13:32:19;;;;;;;29.70;5.57;;;8.60;99.90;;;;;;5075317;28;20047;-84
2022/12/24 13:35:17;;;;;;;26.15;5.03;;;8.60;99.90;;;;;;5097873;28;20052;-86
2022/12/24 13:38:25;;;;;;;24.33;4.55;;;8.60;99.90;;;;;;5074803;28;20055;-80
2022/12/24 13:41:30;;;;;;;22.42;4.55;;;8.60;99.90;;;;;;5074991;28;20048;-85
2022/12/24 13:44:19;;;;;;;34.45;5.43;;;8.60;99.90;;;;;;5061069;28;20055;-83
2022/12/24 13:47:20;;;;;;;18.08;3.92;;;8.60;99.90;;;;;;5092085;28;20131;-82
2022/12/24 13:50:22;;;;;;;18.17;4.60;;;8.50;99.90;;;;;;5093150;28;20396;-85
2022/12/24 13:53:28;;;;;;;27.15;4.82;;;8.50;99.90;;;;;;5080970;28;20052;-82
2022/12/24 13:56:15;;;;;;;29.83;5.03;;;8.50;99.90;;;;;;5092007;28;20048;-78
2022/12/24 13:59:28;;;;;;;25.17;5.28;;;8.50;99.90;;;;;;5063716;28;20051;-84
2022/12/24 14:02:20;;;;;;;23.98;5.25;;;8.60;99.90;;;;;;5078855;28;20113;-84
2022/12/24 14:05:16;;;;;;;23.13;5.00;;;8.60;99.90;;;;;;5080780;28;20048;-84
2022/12/24 14:08:27;;;;;;;28.05;6.78;;;8.60;99.90;;;;;;5100438;28;20086;-85
2022/12/24 14:11:23;;;;;;;28.08;5.22;;;8.60;99.90;;;;;;5102766;28;20059;-84
2022/12/24 14:14:25;;;;;;;23.95;5.05;;;8.60;99.90;;;;;;5095447;28;20048;-80
2022/12/24 14:17:23;;;;;;;25.80;4.80;;;8.60;99.90;;;;;;5093102;28;20087;-84
2022/12/24 14:20:09;;;;;;;28.95;5.45;;;8.50;99.90;;;;;;5091550;28;20085;-80
2022/12/24 14:22:56;;;;;;;31.13;6.20;;;8.50;99.90;;;;;;5090518;28;20048;-78
2022/12/24 14:25:42;;;;;;;27.08;6.28;;;8.50;99.90;;;;;;5073004;28;20079;-78
2022/12/24 14:28:37;;;;;;;32.53;4.90;;;8.50;99.90;;;;;;5060045;28;20133;-79
2022/12/24 14:31:23;;;;;;;23.57;4.43;;;8.40;99.90;;;;;;5096096;28;20488;-78
2022/12/24 14:34:13;;;;;;;29.48;5.43;;;8.40;99.90;;;;;;5091244;28;20047;-78
2022/12/24 14:37:03;;;;;;;25.67;5.32;;;8.40;99.90;;;;;;5091314;28;20036;-78
2022/12/24 14:39:55;;;;;;;19.15;4.57;;;8.30;99.90;;;;;;5073440;28;20130;-86
2022/12/24 14:43:09;;;;;;;23.70;5.25;;;8.20;99.90;;;;;;5073012;28;20050;-77
2022/12/24 14:46:19;;;;;;;19.75;4.57;;;8.10;99.90;;;;;;5073447;28;20446;-85
2022/12/24 14:49:11;;;;;;;22.23;5.00;;;8.00;99.90;;;;;;5099238;28;20040;-82
2022/12/24 14:52:22;;;;;;;27.65;6.07;;;7.90;99.90;;;;;;5096280;28;20047;-79
2022/12/24 14:55:30;;;;;;;24.10;4.70;;;7.80;99.90;;;;;;5076868;28;20373;-77
2022/12/24 14:58:19;;;;;;;26.05;4.47;;;7.70;99.90;;;;;;5073555;28;20083;-81